sensor_id;sensor_type;location;lat;lon;timestamp;pressure;altitude;pressure_sealevel;temperature;humidity
61345;BME280;47216;42.656;23.232;2023-01-26T00:02:22;94268.91;;;0.58;72.97
61345;BME280;47216;42.656;23.232;2023-01-26T00:04:48;94263.69;;;0.52;73.00
61345;BME280;47216;42.656;23.232;2023-01-26T00:07:15;94255.47;;;0.56;72.92
61345;BME280;47216;42.656;23.232;2023-01-26T00:09:41;94258.19;;;0.55;73.12
61345;BME280;47216;42.656;23.232;2023-01-26T00:12:08;94261.03;;;0.60;72.71
61345;BME280;47216;42.656;23.232;2023-01-26T00:14:36;94279.16;;;0.58;72.76
61345;BME280;47216;42.656;23.232;2023-01-26T00:17:18;94277.91;;;0.54;72.86
61345;BME280;47216;42.656;23.232;2023-01-26T00:19:54;94282.25;;;0.54;72.83
61345;BME280;47216;42.656;23.232;2023-01-26T00:22:21;94285.44;;;0.56;72.75
61345;BME280;47216;42.656;23.232;2023-01-26T00:24:47;94268.44;;;0.55;72.76
61345;BME280;47216;42.656;23.232;2023-01-26T00:27:14;94258.97;;;0.55;72.67
61345;BME280;47216;42.656;23.232;2023-01-26T00:29:42;94254.31;;;0.59;72.77
61345;BME280;47216;42.656;23.232;2023-01-26T00:32:08;94252.38;;;0.61;72.60
61345;BME280;47216;42.656;23.232;2023-01-26T00:34:35;94244.03;;;0.59;72.46
61345;BME280;47216;42.656;23.232;2023-01-26T00:37:02;94241.75;;;0.49;72.40
61345;BME280;47216;42.656;23.232;2023-01-26T00:39:28;94245.78;;;0.44;72.58
61345;BME280;47216;42.656;23.232;2023-01-26T00:41:55;94241.13;;;0.47;72.48
61345;BME280;47216;42.656;23.232;2023-01-26T00:44:36;94235.19;;;0.47;72.41
61345;BME280;47216;42.656;23.232;2023-01-26T00:47:05;94225.72;;;0.47;72.53
61345;BME280;47216;42.656;23.232;2023-01-26T00:49:31;94236.16;;;0.46;72.37
61345;BME280;47216;42.656;23.232;2023-01-26T00:51:58;94235.53;;;0.44;72.32
61345;BME280;47216;42.656;23.232;2023-01-26T00:54:24;94244.25;;;0.34;72.66
61345;BME280;47216;42.656;23.232;2023-01-26T00:56:51;94227.19;;;0.41;72.46
61345;BME280;47216;42.656;23.232;2023-01-26T00:59:18;94218.09;;;0.39;72.09
61345;BME280;47216;42.656;23.232;2023-01-26T01:01:44;94228.56;;;0.37;72.58
61345;BME280;47216;42.656;23.232;2023-01-26T01:04:12;94220.13;;;0.44;72.33
61345;BME280;47216;42.656;23.232;2023-01-26T01:06:39;94216.34;;;0.39;72.02
61345;BME280;47216;42.656;23.232;2023-01-26T01:09:06;94224.22;;;0.38;72.43
61345;BME280;47216;42.656;23.232;2023-01-26T01:11:32;94223.06;;;0.40;71.93
61345;BME280;47216;42.656;23.232;2023-01-26T01:13:59;94222.78;;;0.35;72.39
61345;BME280;47216;42.656;23.232;2023-01-26T01:16:26;94217.31;;;0.38;72.29
61345;BME280;47216;42.656;23.232;2023-01-26T01:18:53;94219.69;;;0.40;71.70
61345;BME280;47216;42.656;23.232;2023-01-26T01:21:21;94215.81;;;0.44;72.17
61345;BME280;47216;42.656;23.232;2023-01-26T01:23:49;94211.47;;;0.45;71.99
61345;BME280;47216;42.656;23.232;2023-01-26T01:26:15;94217.66;;;0.35;72.22
61345;BME280;47216;42.656;23.232;2023-01-26T01:28:42;94211.03;;;0.41;72.06
61345;BME280;47216;42.656;23.232;2023-01-26T01:31:10;94207.84;;;0.39;71.90
61345;BME280;47216;42.656;23.232;2023-01-26T01:33:36;94209.34;;;0.33;71.77
61345;BME280;47216;42.656;23.232;2023-01-26T01:36:04;94217.66;;;0.35;71.89
61345;BME280;47216;42.656;23.232;2023-01-26T01:38:32;94219.69;;;0.40;71.73
61345;BME280;47216;42.656;23.232;2023-01-26T01:40:59;94209.25;;;0.41;71.98
61345;BME280;47216;42.656;23.232;2023-01-26T01:43:25;94212.16;;;0.38;71.55
61345;BME280;47216;42.656;23.232;2023-01-26T01:45:52;94201.56;;;0.41;71.72
61345;BME280;47216;42.656;23.232;2023-01-26T01:48:21;94204.75;;;0.44;71.29
61345;BME280;47216;42.656;23.232;2023-01-26T01:50:50;94197.16;;;0.35;71.59
61345;BME280;47216;42.656;23.232;2023-01-26T01:53:18;94197.94;;;0.36;71.76
61345;BME280;47216;42.656;23.232;2023-01-26T01:55:50;94207.03;;;0.38;71.39
61345;BME280;47216;42.656;23.232;2023-01-26T01:58:18;94199.19;;;0.40;71.77
61345;BME280;47216;42.656;23.232;2023-01-26T02:00:45;94197.16;;;0.35;71.68
61345;BME280;47216;42.656;23.232;2023-01-26T02:03:11;94203.84;;;0.36;71.31
61345;BME280;47216;42.656;23.232;2023-01-26T02:05:51;94185.28;;;0.34;71.24
61345;BME280;47216;42.656;23.232;2023-01-26T02:08:20;94194.31;;;0.30;71.66
61345;BME280;47216;42.656;23.232;2023-01-26T02:10:48;94185.19;;;0.28;71.46
61345;BME280;47216;42.656;23.232;2023-01-26T02:13:17;94172.56;;;0.26;71.67
61345;BME280;47216;42.656;23.232;2023-01-26T02:15:45;94173.06;;;0.36;71.57
61345;BME280;47216;42.656;23.232;2023-01-26T02:18:12;94165.47;;;0.28;71.37
61345;BME280;47216;42.656;23.232;2023-01-26T02:20:40;94161.84;;;0.23;71.16
61345;BME280;47216;42.656;23.232;2023-01-26T02:23:11;94158.66;;;0.20;71.57
61345;BME280;47216;42.656;23.232;2023-01-26T02:25:43;94147.59;;;0.20;71.37
61345;BME280;47216;42.656;23.232;2023-01-26T02:28:14;94136.72;;;0.18;71.13
61345;BME280;47216;42.656;23.232;2023-01-26T02:30:41;94142.84;;;0.17;71.59
61345;BME280;47216;42.656;23.232;2023-01-26T02:33:13;94140.97;;;0.11;71.71
61345;BME280;47216;42.656;23.232;2023-01-26T02:35:39;94137.25;;;0.13;71.58
61345;BME280;47216;42.656;23.232;2023-01-26T02:38:06;94134.25;;;0.10;71.49
61345;BME280;47216;42.656;23.232;2023-01-26T02:40:35;94131.06;;;0.08;72.04
61345;BME280;47216;42.656;23.232;2023-01-26T02:43:04;94134.06;;;0.11;71.98
61345;BME280;47216;42.656;23.232;2023-01-26T02:45:31;94122.13;;;0.04;71.77
61345;BME280;47216;42.656;23.232;2023-01-26T02:47:59;94112.94;;;-0.06;72.16
61345;BME280;47216;42.656;23.232;2023-01-26T02:50:28;94114.19;;;-0.02;71.71
61345;BME280;47216;42.656;23.232;2023-01-26T02:52:54;94116.03;;;-0.10;72.05
61345;BME280;47216;42.656;23.232;2023-01-26T02:55:20;94116.72;;;-0.16;72.33
61345;BME280;47216;42.656;23.232;2023-01-26T02:57:53;94119.72;;;-0.13;72.54
61345;BME280;47216;42.656;23.232;2023-01-26T03:00:21;94104.63;;;-0.08;72.45
61345;BME280;47216;42.656;23.232;2023-01-26T03:02:49;94088.63;;;-0.10;72.43
61345;BME280;47216;42.656;23.232;2023-01-26T03:05:17;94099.84;;;-0.11;72.76
61345;BME280;47216;42.656;23.232;2023-01-26T03:07:43;94100.28;;;-0.07;72.34
61345;BME280;47216;42.656;23.232;2023-01-26T03:10:10;94096.31;;;-0.10;72.36
61345;BME280;47216;42.656;23.232;2023-01-26T03:12:37;94095.16;;;-0.07;72.38
61345;BME280;47216;42.656;23.232;2023-01-26T03:15:04;94081.38;;;-0.06;71.97
61345;BME280;47216;42.656;23.232;2023-01-26T03:17:50;94081.75;;;-0.09;72.14
61345;BME280;47216;42.656;23.232;2023-01-26T03:20:37;94079.97;;;-0.09;72.16
61345;BME280;47216;42.656;23.232;2023-01-26T03:23:21;94070.97;;;-0.05;71.73
61345;BME280;47216;42.656;23.232;2023-01-26T03:26:06;94084.91;;;-0.07;72.03
61345;BME280;47216;42.656;23.232;2023-01-26T03:28:51;94084.13;;;-0.08;72.01
61345;BME280;47216;42.656;23.232;2023-01-26T03:31:18;94073.06;;;-0.08;71.95
61345;BME280;47216;42.656;23.232;2023-01-26T03:33:46;94071.94;;;-0.06;71.65
61345;BME280;47216;42.656;23.232;2023-01-26T03:36:12;94071.50;;;-0.09;71.76
61345;BME280;47216;42.656;23.232;2023-01-26T03:38:39;94076.00;;;-0.11;72.21
61345;BME280;47216;42.656;23.232;2023-01-26T03:41:05;94078.72;;;-0.13;71.86
61345;BME280;47216;42.656;23.232;2023-01-26T03:43:49;94068.31;;;-0.11;71.78
61345;BME280;47216;42.656;23.232;2023-01-26T03:46:33;94075.72;;;-0.16;72.33
61345;BME280;47216;42.656;23.232;2023-01-26T03:49:18;94068.22;;;-0.18;71.98
61345;BME280;47216;42.656;23.232;2023-01-26T03:52:03;94067.84;;;-0.15;72.00
61345;BME280;47216;42.656;23.232;2023-01-26T03:54:47;94067.50;;;-0.27;72.10
61345;BME280;47216;42.656;23.232;2023-01-26T03:57:31;94063.44;;;-0.21;72.20
61345;BME280;47216;42.656;23.232;2023-01-26T03:59:57;94066.72;;;-0.12;71.63
61345;BME280;47216;42.656;23.232;2023-01-26T04:02:24;94058.75;;;-0.17;71.73
61345;BME280;47216;42.656;23.232;2023-01-26T04:05:09;94053.72;;;-0.11;71.70
61345;BME280;47216;42.656;23.232;2023-01-26T04:07:53;94047.34;;;-0.15;71.72
61345;BME280;47216;42.656;23.232;2023-01-26T04:10:37;94047.34;;;-0.15;71.57
61345;BME280;47216;42.656;23.232;2023-01-26T04:13:04;94041.09;;;-0.12;71.57
61345;BME280;47216;42.656;23.232;2023-01-26T04:15:48;94036.75;;;-0.12;71.51
61345;BME280;47216;42.656;23.232;2023-01-26T04:18:32;94023.34;;;-0.14;71.28
61345;BME280;47216;42.656;23.232;2023-01-26T04:21:17;94011.22;;;-0.20;71.64
61345;BME280;47216;42.656;23.232;2023-01-26T04:23:54;94005.38;;;-0.29;71.46
61345;BME280;47216;42.656;23.232;2023-01-26T04:26:21;93997.69;;;-0.29;71.22
61345;BME280;47216;42.656;23.232;2023-01-26T04:28:48;93997.53;;;-0.27;71.79
61345;BME280;47216;42.656;23.232;2023-01-26T04:31:15;94010.50;;;-0.29;71.61
61345;BME280;47216;42.656;23.232;2023-01-26T04:33:41;93999.84;;;-0.32;72.44
61345;BME280;47216;42.656;23.232;2023-01-26T04:36:08;94008.47;;;-0.33;71.55
61345;BME280;47216;42.656;23.232;2023-01-26T04:38:36;94012.91;;;-0.27;72.08
61345;BME280;47216;42.656;23.232;2023-01-26T04:41:03;94019.28;;;-0.23;71.39
61345;BME280;47216;42.656;23.232;2023-01-26T04:43:29;94018.03;;;-0.27;71.51
61345;BME280;47216;42.656;23.232;2023-01-26T04:45:56;94021.91;;;-0.31;71.45
61345;BME280;47216;42.656;23.232;2023-01-26T04:48:23;94023.94;;;-0.27;71.44
61345;BME280;47216;42.656;23.232;2023-01-26T04:50:52;94018.28;;;-0.22;70.99
61345;BME280;47216;42.656;23.232;2023-01-26T04:53:18;94020.84;;;-0.22;71.09
61345;BME280;47216;42.656;23.232;2023-01-26T04:55:46;94015.81;;;-0.15;70.97
61345;BME280;47216;42.656;23.232;2023-01-26T04:58:13;94019.16;;;-0.15;70.88
61345;BME280;47216;42.656;23.232;2023-01-26T05:00:39;94019.16;;;-0.15;70.64
61345;BME280;47216;42.656;23.232;2023-01-26T05:03:06;94021.03;;;-0.09;70.41
61345;BME280;47216;42.656;23.232;2023-01-26T05:05:34;94019.44;;;-0.10;69.78
61345;BME280;47216;42.656;23.232;2023-01-26T05:08:01;94015.03;;;-0.16;70.57
61345;BME280;47216;42.656;23.232;2023-01-26T05:10:27;94025.91;;;-0.14;70.31
61345;BME280;47216;42.656;23.232;2023-01-26T05:12:55;94019.88;;;-0.06;70.42
61345;BME280;47216;42.656;23.232;2023-01-26T05:15:22;94018.09;;;-0.06;70.26
61345;BME280;47216;42.656;23.232;2023-01-26T05:17:48;94016.53;;;-0.07;70.14
61345;BME280;47216;42.656;23.232;2023-01-26T05:20:15;94010.41;;;-0.06;69.87
61345;BME280;47216;42.656;23.232;2023-01-26T05:22:42;94015.19;;;-0.03;69.85
61345;BME280;47216;42.656;23.232;2023-01-26T05:25:08;94008.94;;;0.00;70.06
61345;BME280;47216;42.656;23.232;2023-01-26T05:27:35;94004.22;;;0.04;69.85
61345;BME280;47216;42.656;23.232;2023-01-26T05:30:03;94008.56;;;0.03;70.08
61345;BME280;47216;42.656;23.232;2023-01-26T05:32:30;94005.81;;;0.05;69.78
61345;BME280;47216;42.656;23.232;2023-01-26T05:34:56;94010.94;;;0.05;69.51
61345;BME280;47216;42.656;23.232;2023-01-26T05:37:23;94004.34;;;-0.05;70.14
61345;BME280;47216;42.656;23.232;2023-01-26T05:39:50;94000.25;;;0.01;69.88
61345;BME280;47216;42.656;23.232;2023-01-26T05:42:17;94003.81;;;0.00;70.23
61345;BME280;47216;42.656;23.232;2023-01-26T05:44:44;93999.34;;;0.09;69.71
61345;BME280;47216;42.656;23.232;2023-01-26T05:47:12;93999.53;;;0.07;69.39
61345;BME280;47216;42.656;23.232;2023-01-26T05:49:38;94002.69;;;0.09;69.79
61345;BME280;47216;42.656;23.232;2023-01-26T05:52:07;93999.97;;;0.11;69.63
61345;BME280;47216;42.656;23.232;2023-01-26T05:54:33;94001.56;;;0.12;69.34
61345;BME280;47216;42.656;23.232;2023-01-26T05:57:00;94002.53;;;0.11;69.69
61345;BME280;47216;42.656;23.232;2023-01-26T05:59:26;94001.50;;;0.05;68.96
61345;BME280;47216;42.656;23.232;2023-01-26T06:01:54;93997.84;;;-0.01;69.50
61345;BME280;47216;42.656;23.232;2023-01-26T06:04:22;93996.38;;;0.41;80.82
61345;BME280;47216;42.656;23.232;2023-01-26T06:06:50;93993.66;;;0.86;71.63
61345;BME280;47216;42.656;23.232;2023-01-26T06:09:17;93986.88;;;0.78;68.46
61345;BME280;47216;42.656;23.232;2023-01-26T06:11:44;93980.53;;;0.74;68.06
61345;BME280;47216;42.656;23.232;2023-01-26T06:14:10;93984.00;;;0.67;68.09
61345;BME280;47216;42.656;23.232;2023-01-26T06:16:37;93991.38;;;0.55;68.05
61345;BME280;47216;42.656;23.232;2023-01-26T06:19:03;93989.28;;;0.44;68.68
61345;BME280;47216;42.656;23.232;2023-01-26T06:21:31;93992.84;;;0.43;68.83
61345;BME280;47216;42.656;23.232;2023-01-26T06:23:58;93986.84;;;0.35;68.89
61345;BME280;47216;42.656;23.232;2023-01-26T06:26:24;93989.75;;;0.32;68.96
61345;BME280;47216;42.656;23.232;2023-01-26T06:28:51;93984.03;;;0.30;69.35
61345;BME280;47216;42.656;23.232;2023-01-26T06:31:18;93977.53;;;0.34;69.33
61345;BME280;47216;42.656;23.232;2023-01-26T06:33:45;93971.00;;;0.32;69.25
61345;BME280;47216;42.656;23.232;2023-01-26T06:36:12;93973.41;;;0.33;68.96
61345;BME280;47216;42.656;23.232;2023-01-26T06:38:44;93967.91;;;0.36;68.89
61345;BME280;47216;42.656;23.232;2023-01-26T06:41:11;93963.16;;;0.33;69.00
61345;BME280;47216;42.656;23.232;2023-01-26T06:43:38;93970.31;;;0.38;69.52
61345;BME280;47216;42.656;23.232;2023-01-26T06:46:04;93969.59;;;0.44;68.87
61345;BME280;47216;42.656;23.232;2023-01-26T06:48:32;93960.13;;;0.45;68.64
61345;BME280;47216;42.656;23.232;2023-01-26T06:51:03;93965.78;;;0.40;69.45
61345;BME280;47216;42.656;23.232;2023-01-26T06:53:32;93960.66;;;0.40;69.06
61345;BME280;47216;42.656;23.232;2023-01-26T06:56:00;93958.50;;;0.44;68.83
61345;BME280;47216;42.656;23.232;2023-01-26T06:58:27;93948.84;;;0.46;68.86
61345;BME280;47216;42.656;23.232;2023-01-26T07:00:54;93956.56;;;0.46;68.91
61345;BME280;47216;42.656;23.232;2023-01-26T07:03:21;93953.75;;;0.40;68.78
61345;BME280;47216;42.656;23.232;2023-01-26T07:05:47;93943.50;;;0.40;68.75
61345;BME280;47216;42.656;23.232;2023-01-26T07:08:14;93955.94;;;0.44;69.24
61345;BME280;47216;42.656;23.232;2023-01-26T07:10:40;93951.25;;;0.47;68.91
61345;BME280;47216;42.656;23.232;2023-01-26T07:13:08;93945.94;;;0.49;68.85
61345;BME280;47216;42.656;23.232;2023-01-26T07:15:35;93947.09;;;0.46;69.25
61345;BME280;47216;42.656;23.232;2023-01-26T07:18:02;93941.78;;;0.48;69.35
61345;BME280;47216;42.656;23.232;2023-01-26T07:20:28;93943.81;;;0.52;69.54
61345;BME280;47216;42.656;23.232;2023-01-26T07:22:55;93940.06;;;0.55;69.09
61345;BME280;47216;42.656;23.232;2023-01-26T07:25:22;93935.31;;;0.52;69.13
61345;BME280;47216;42.656;23.232;2023-01-26T07:27:53;93922.72;;;0.57;69.88
61345;BME280;47216;42.656;23.232;2023-01-26T07:30:21;93933.22;;;0.62;69.37
61345;BME280;47216;42.656;23.232;2023-01-26T07:32:48;93938.25;;;0.70;69.14
61345;BME280;47216;42.656;23.232;2023-01-26T07:35:15;93942.66;;;0.76;68.84
61345;BME280;47216;42.656;23.232;2023-01-26T07:37:41;93922.13;;;0.76;68.40
61345;BME280;47216;42.656;23.232;2023-01-26T07:40:08;93928.03;;;0.77;68.30
61345;BME280;47216;42.656;23.232;2023-01-26T07:42:35;93927.03;;;0.78;68.18
61345;BME280;47216;42.656;23.232;2023-01-26T07:45:01;93929.66;;;0.84;67.63
61345;BME280;47216;42.656;23.232;2023-01-26T07:47:30;93930.28;;;0.87;67.79
61345;BME280;47216;42.656;23.232;2023-01-26T07:49:56;93927.72;;;0.87;67.60
61345;BME280;47216;42.656;23.232;2023-01-26T07:52:23;93934.88;;;0.91;67.77
61345;BME280;47216;42.656;23.232;2023-01-26T07:54:50;93949.66;;;0.89;67.42
61345;BME280;47216;42.656;23.232;2023-01-26T07:57:16;93943.13;;;0.87;67.47
61345;BME280;47216;42.656;23.232;2023-01-26T07:59:43;93936.44;;;0.92;67.86
61345;BME280;47216;42.656;23.232;2023-01-26T08:02:09;93933.56;;;1.02;68.10
61345;BME280;47216;42.656;23.232;2023-01-26T08:04:37;93930.63;;;1.05;67.74
61345;BME280;47216;42.656;23.232;2023-01-26T08:07:04;93929.28;;;1.09;67.20
61345;BME280;47216;42.656;23.232;2023-01-26T08:09:30;93933.47;;;1.17;67.21
61345;BME280;47216;42.656;23.232;2023-01-26T08:11:57;93935.44;;;1.15;66.97
61345;BME280;47216;42.656;23.232;2023-01-26T08:14:24;93929.50;;;1.14;66.89
61345;BME280;47216;42.656;23.232;2023-01-26T08:16:50;93923.19;;;1.17;66.64
61345;BME280;47216;42.656;23.232;2023-01-26T08:19:17;93911.00;;;1.25;66.56
61345;BME280;47216;42.656;23.232;2023-01-26T08:21:45;93905.91;;;1.32;66.92
61345;BME280;47216;42.656;23.232;2023-01-26T08:24:11;93910.66;;;1.35;66.61
61345;BME280;47216;42.656;23.232;2023-01-26T08:26:38;93916.81;;;1.34;66.58
61345;BME280;47216;42.656;23.232;2023-01-26T08:29:04;93924.06;;;1.31;66.76
61345;BME280;47216;42.656;23.232;2023-01-26T08:31:31;93921.16;;;1.40;66.65
61345;BME280;47216;42.656;23.232;2023-01-26T08:33:58;93925.13;;;1.43;66.51
61345;BME280;47216;42.656;23.232;2023-01-26T08:36:24;93913.69;;;1.45;66.62
61345;BME280;47216;42.656;23.232;2023-01-26T08:38:54;93912.88;;;1.45;66.46
61345;BME280;47216;42.656;23.232;2023-01-26T08:41:20;93907.19;;;1.50;65.86
61345;BME280;47216;42.656;23.232;2023-01-26T08:43:47;93915.09;;;1.48;66.29
61345;BME280;47216;42.656;23.232;2023-01-26T08:46:13;93919.66;;;1.53;66.51
61345;BME280;47216;42.656;23.232;2023-01-26T08:48:40;93931.94;;;1.57;66.19
61345;BME280;47216;42.656;23.232;2023-01-26T08:51:07;93929.22;;;1.65;66.04
61345;BME280;47216;42.656;23.232;2023-01-26T08:53:34;93927.66;;;1.71;66.14
61345;BME280;47216;42.656;23.232;2023-01-26T08:56:03;93916.00;;;1.75;65.90
61345;BME280;47216;42.656;23.232;2023-01-26T08:58:30;93915.66;;;1.78;65.01
61345;BME280;47216;42.656;23.232;2023-01-26T09:00:57;93914.59;;;1.73;65.25
61345;BME280;47216;42.656;23.232;2023-01-26T09:03:24;93912.03;;;1.73;65.85
61345;BME280;47216;42.656;23.232;2023-01-26T09:05:50;93919.97;;;1.78;65.57
61345;BME280;47216;42.656;23.232;2023-01-26T09:08:17;93918.03;;;1.86;65.57
61345;BME280;47216;42.656;23.232;2023-01-26T09:10:44;93925.97;;;1.85;65.77
61345;BME280;47216;42.656;23.232;2023-01-26T09:13:11;93925.56;;;1.88;65.00
61345;BME280;47216;42.656;23.232;2023-01-26T09:15:38;93922.38;;;1.86;65.39
61345;BME280;47216;42.656;23.232;2023-01-26T09:18:05;93914.06;;;1.84;65.01
61345;BME280;47216;42.656;23.232;2023-01-26T09:20:31;93910.34;;;1.93;64.91
61345;BME280;47216;42.656;23.232;2023-01-26T09:22:58;93901.06;;;1.92;64.78
61345;BME280;47216;42.656;23.232;2023-01-26T09:25:24;93902.25;;;1.96;65.51
61345;BME280;47216;42.656;23.232;2023-01-26T09:27:51;93899.09;;;2.01;64.89
61345;BME280;47216;42.656;23.232;2023-01-26T09:30:19;93886.09;;;2.16;64.75
61345;BME280;47216;42.656;23.232;2023-01-26T09:32:46;93881.34;;;2.19;64.42
61345;BME280;47216;42.656;23.232;2023-01-26T09:35:12;93871.06;;;2.26;64.15
61345;BME280;47216;42.656;23.232;2023-01-26T09:37:39;93867.88;;;2.24;63.90
61345;BME280;47216;42.656;23.232;2023-01-26T09:40:06;93867.09;;;2.23;64.21
61345;BME280;47216;42.656;23.232;2023-01-26T09:42:42;93875.00;;;2.22;64.34
61345;BME280;47216;42.656;23.232;2023-01-26T09:45:19;93882.97;;;2.27;64.45
61345;BME280;47216;42.656;23.232;2023-01-26T09:47:52;93886.50;;;2.26;63.73
61345;BME280;47216;42.656;23.232;2023-01-26T09:50:24;93872.44;;;2.22;64.60
61345;BME280;47216;42.656;23.232;2023-01-26T09:52:53;93868.88;;;2.23;65.65
61345;BME280;47216;42.656;23.232;2023-01-26T09:55:21;93852.66;;;2.22;64.89
61345;BME280;47216;42.656;23.232;2023-01-26T09:57:49;93850.47;;;2.26;64.29
61345;BME280;47216;42.656;23.232;2023-01-26T10:00:17;93861.38;;;2.28;64.75
61345;BME280;47216;42.656;23.232;2023-01-26T10:02:50;93865.94;;;2.33;64.56
61345;BME280;47216;42.656;23.232;2023-01-26T10:05:21;93854.66;;;2.34;64.41
61345;BME280;47216;42.656;23.232;2023-01-26T10:07:50;93850.31;;;2.34;63.91
61345;BME280;47216;42.656;23.232;2023-01-26T10:10:19;93851.50;;;2.31;64.19
61345;BME280;47216;42.656;23.232;2023-01-26T10:12:47;93848.50;;;2.28;63.92
61345;BME280;47216;42.656;23.232;2023-01-26T10:15:18;93848.91;;;2.25;64.45
61345;BME280;47216;42.656;23.232;2023-01-26T10:17:50;93840.63;;;2.36;64.06
61345;BME280;47216;42.656;23.232;2023-01-26T10:20:22;93830.31;;;2.36;63.87
61345;BME280;47216;42.656;23.232;2023-01-26T10:22:53;93814.88;;;2.36;64.14
61345;BME280;47216;42.656;23.232;2023-01-26T10:25:21;93803.00;;;2.35;64.13
61345;BME280;47216;42.656;23.232;2023-01-26T10:27:52;93797.47;;;2.31;64.11
61345;BME280;47216;42.656;23.232;2023-01-26T10:30:19;93791.50;;;2.31;63.86
61345;BME280;47216;42.656;23.232;2023-01-26T10:32:46;93770.38;;;2.29;63.75
61345;BME280;47216;42.656;23.232;2023-01-26T10:35:17;93778.09;;;2.29;64.01
61345;BME280;47216;42.656;23.232;2023-01-26T10:37:44;93768.56;;;2.29;63.59
61345;BME280;47216;42.656;23.232;2023-01-26T10:40:11;93760.44;;;2.26;64.16
61345;BME280;47216;42.656;23.232;2023-01-26T10:42:38;93757.88;;;2.26;64.92
61345;BME280;47216;42.656;23.232;2023-01-26T10:45:06;93746.22;;;2.30;64.32
61345;BME280;47216;42.656;23.232;2023-01-26T10:47:57;93737.72;;;2.23;64.18
61345;BME280;47216;42.656;23.232;2023-01-26T10:50:28;93739.69;;;2.21;64.06
61345;BME280;47216;42.656;23.232;2023-01-26T10:52:56;93736.09;;;2.22;64.02
61345;BME280;47216;42.656;23.232;2023-01-26T10:55:23;93741.25;;;2.22;64.00
61345;BME280;47216;42.656;23.232;2023-01-26T10:57:50;93721.88;;;2.26;64.83
61345;BME280;47216;42.656;23.232;2023-01-26T11:00:22;93715.75;;;2.27;64.59
61345;BME280;47216;42.656;23.232;2023-01-26T11:02:50;93700.91;;;2.29;63.85
61345;BME280;47216;42.656;23.232;2023-01-26T11:05:18;93699.72;;;2.25;64.41
61345;BME280;47216;42.656;23.232;2023-01-26T11:07:46;93696.72;;;2.28;64.51
61345;BME280;47216;42.656;23.232;2023-01-26T11:10:21;93695.34;;;2.25;64.61
61345;BME280;47216;42.656;23.232;2023-01-26T11:12:48;93693.78;;;2.24;64.36
61345;BME280;47216;42.656;23.232;2023-01-26T11:15:15;93679.50;;;2.35;64.02
61345;BME280;47216;42.656;23.232;2023-01-26T11:17:45;93689.41;;;2.38;63.72
61345;BME280;47216;42.656;23.232;2023-01-26T11:20:26;93686.03;;;2.38;63.97
61345;BME280;47216;42.656;23.232;2023-01-26T11:22:56;93676.34;;;2.33;64.35
61345;BME280;47216;42.656;23.232;2023-01-26T11:25:26;93677.94;;;2.27;64.25
61345;BME280;47216;42.656;23.232;2023-01-26T11:27:58;93669.22;;;2.28;64.41
61345;BME280;47216;42.656;23.232;2023-01-26T11:30:31;93660.13;;;2.26;64.28
61345;BME280;47216;42.656;23.232;2023-01-26T11:33:02;93656.94;;;2.37;64.32
61345;BME280;47216;42.656;23.232;2023-01-26T11:35:35;93661.72;;;2.34;64.15
61345;BME280;47216;42.656;23.232;2023-01-26T11:38:09;93664.47;;;2.32;63.77
61345;BME280;47216;42.656;23.232;2023-01-26T11:40:39;93658.13;;;2.35;64.18
61345;BME280;47216;42.656;23.232;2023-01-26T11:43:15;93640.13;;;2.35;65.13
61345;BME280;47216;42.656;23.232;2023-01-26T11:45:57;93632.41;;;2.41;64.13
61345;BME280;47216;42.656;23.232;2023-01-26T11:48:28;93644.66;;;2.39;64.84
61345;BME280;47216;42.656;23.232;2023-01-26T11:51:00;93652.97;;;2.41;65.27
61345;BME280;47216;42.656;23.232;2023-01-26T11:53:35;93657.34;;;2.41;64.49
61345;BME280;47216;42.656;23.232;2023-01-26T11:56:11;93654.19;;;2.32;64.96
61345;BME280;47216;42.656;23.232;2023-01-26T11:58:39;93645.69;;;2.25;64.64
61345;BME280;47216;42.656;23.232;2023-01-26T12:01:08;93637.75;;;2.26;65.17
61345;BME280;47216;42.656;23.232;2023-01-26T12:03:38;93625.31;;;2.30;64.67
61345;BME280;47216;42.656;23.232;2023-01-26T12:06:10;93621.34;;;2.27;65.60
61345;BME280;47216;42.656;23.232;2023-01-26T12:08:41;93618.59;;;2.29;65.58
61345;BME280;47216;42.656;23.232;2023-01-26T12:11:09;93617.22;;;2.20;64.62
61345;BME280;47216;42.656;23.232;2023-01-26T12:13:49;93604.38;;;2.20;65.22
61345;BME280;47216;42.656;23.232;2023-01-26T12:16:19;93593.47;;;2.18;65.40
61345;BME280;47216;42.656;23.232;2023-01-26T12:18:51;93576.69;;;2.15;65.42
61345;BME280;47216;42.656;23.232;2023-01-26T12:21:19;93574.88;;;2.16;65.21
61345;BME280;47216;42.656;23.232;2023-01-26T12:23:49;93569.91;;;2.21;65.54
61345;BME280;47216;42.656;23.232;2023-01-26T12:26:17;93561.78;;;2.30;70.80
61345;BME280;47216;42.656;23.232;2023-01-26T12:28:46;93559.44;;;2.29;65.64
61345;BME280;47216;42.656;23.232;2023-01-26T12:31:16;93558.63;;;2.22;66.21
61345;BME280;47216;42.656;23.232;2023-01-26T12:33:43;93546.97;;;2.19;65.98
61345;BME280;47216;42.656;23.232;2023-01-26T12:36:14;93547.38;;;2.16;66.40
61345;BME280;47216;42.656;23.232;2023-01-26T12:38:45;93540.09;;;2.13;66.40
61345;BME280;47216;42.656;23.232;2023-01-26T12:41:17;93539.09;;;2.07;66.41
61345;BME280;47216;42.656;23.232;2023-01-26T12:43:51;93546.63;;;2.02;66.77
61345;BME280;47216;42.656;23.232;2023-01-26T12:46:19;93552.19;;;1.99;67.08
61345;BME280;47216;42.656;23.232;2023-01-26T12:48:47;93547.81;;;2.00;67.40
61345;BME280;47216;42.656;23.232;2023-01-26T12:51:17;93555.72;;;2.05;67.13
61345;BME280;47216;42.656;23.232;2023-01-26T12:53:48;93550.59;;;1.98;67.17
61345;BME280;47216;42.656;23.232;2023-01-26T12:56:21;93546.44;;;2.04;67.47
61345;BME280;47216;42.656;23.232;2023-01-26T12:58:49;93541.50;;;2.02;67.09
61345;BME280;47216;42.656;23.232;2023-01-26T13:01:17;93530.84;;;1.99;67.55
61345;BME280;47216;42.656;23.232;2023-01-26T13:03:44;93531.38;;;2.07;67.41
61345;BME280;47216;42.656;23.232;2023-01-26T13:06:17;93528.81;;;2.07;67.43
61345;BME280;47216;42.656;23.232;2023-01-26T13:08:48;93533.34;;;2.05;67.87